Northern & Central Napa County

33 Stations

15 Minute Data | America/Los_Angeles
as of 9/6/26 2:00 PM PDT
Station Date Time Temp (°F) RH (%) Dew Pt (°F) Wind Spd (mph) Wind Dir (°) Wind Gust (mph) Latest Rain (In) Daily Rain (In) Daily Max Temp (°F) Daily Min Temp (°F)
Tenma (North Calistoga) 9/6/26 1345 80.9   0.9 - - - - - 0.00 0.00 80.9   1.0 43.0   1.1
Calistoga-Solari 9/6/26 1345 78.7   0.2 32   3 46.7   1.9 4.6   0.2 NW | 304 9.9   3.1 0.00 0.00 79.0   0.3 41.3   1.9
Calistoga-North 9/6/26 1345 81.3   0.6 33   4 49.2   2.8 - - - 0.00 0.00 82.4   0.1 42.6   2.5
Twomey Calistoga 9/6/26 1345 81.8   4.3 27   11 44.9   5.5 4.6   2.1 WSW | 252 10.4   1.5 0.00 0.00 84.4   0.2 36.5   3.2
Paloma 9/6/26 1345 82.4   0.2 31   6 48.9   4.8 4.8   1.8 NE | 49 11.0   2.0 0.00 0.00 82.5   0.0 38.5   2.6
Calistoga (Ranch 78) 9/6/26 1400 81.0   0.0 27   4 43.7   3.7 3.5   0.7 W | 268 8.2   1.7 0.00 0.00 81.2   0.5 39.0   2.5
Diamond Mtn (Schramsberg) 9/6/26 1345 79.8   5.1 25   14 40.8   7.0 - - - 0.00 0.00 80.2   2.1 50.6   0.4
Diamond Mtn (McEachran) 9/6/26 1345 76.8   1.0 27   10 40.8   7.6 - - - - - 77.7   2.0 48.2   1.1
Deer Park 9/6/26 1345 81.0   1.4 24   9 40.8   7.4 6.1   1.9 WNW | 296 13.9   4.2 0.00 0.00 81.0   0.8 49.9   0.1
St. Helena-North 9/6/26 1345 82.5   3.7 21   11 38.9   8.2 3.0   0.2 NW | 314 9.4   3.1 0.00 0.00 83.6   3.4 44.2   2.0
St. Helena (NVV Office) 9/6/26 1345 81.6   1.1 - - 2.5   0.0 SSE | 163 7.0   1.1 0.00 0.00 82.5   0.2 44.8   1.5
Tiara Fria (East St. Helena) 9/6/26 1345 80.1   0.6 29   6 45.2   4.8 3.9   0.3 S | 177 8.6   2.3 0.00 0.00 80.9   1.1 42.4   0.8
Prisoner Winery 9/6/26 1345 82.7   0.6 27   5 45.5   3.9 3.5   1.3 NE | 40 8.6   3.5 0.00 0.00 83.7   0.1 42.9   1.1
Rutherford Hill Estate 9/6/26 1345 80.4   0.4 30   5 46.4   3.8 2.6   0.5 SSW | 201 7.2   1.8 0.00 0.00 81.3   0.6 48.6   1.1
Rutherford-North (Mee Ln) 9/6/26 1345 81.2   0.8 28   6 45.4   4.3 4.1   0.4 ESE | 114 9.2   1.3 0.00 0.00 81.6   0.7 40.8   0.7
Rutherford (STS) 9/6/26 1345 83.5   0.4 31   7 49.6   6.0 5.1   0.8 SE | 135 13.3   3.2 0.00 0.00 84.3   0.4 40.3   0.8
Silver Oak OV 9/6/26 1345 79.2   0.4 33   3 47.7   1.8 6.5   1.0 SSE | 155 12.6   0.5 0.00 0.00 79.7   0.6 40.4   1.3
Oakville-NE (Ranch 88) 9/6/26 1345 82.1   0.8 27   4 45.0   2.6 3.7   0.6 S | 170 8.8   0.3 0.00 0.00 82.6   0.9 39.2   1.1
Crossroads Ranch 9/6/26 1345 80.3   0.8 38   2 52.4   0.5 5.5   0.4 SSE | 156 12.1   0.0 0.00 0.00 80.4   0.8 41.0   1.1
Oakville 9/6/26 1345 79.6   0.6 31   4 46.6   2.7 4.9   0.4 S | 169 9.7   1.7 0.00 0.00 80.1   0.4 40.8   1.3
To Kalon Remote (TKKE) 9/6/26 1345 82.2   1.4 - - - - - - - 82.8   0.9 42.1   0.9
To Kalon 9/6/26 1345 81.0   1.0 23   13 40.3   10.8 5.9   0.5 SW | 219 11.4   0.2 0.00 0.00 81.5   1.1 42.5   1.2
To Kalon Remote (TKN5) 9/6/26 1345 81.3   0.1 - - - - - - - 82.2   0.1 42.3   0.9
Jump Rock 9/6/26 1345 75.3   1.2 36   5 46.8   2.3 3.7   0.9 W | 272 9.0   1.4 0.00 0.00 75.8   1.1 41.2   0.4
State Lane Ranch 9/6/26 1345 80.0   0.0 39   1 52.7   1.0 4.1   1.3 SE | 141 9.6   3.0 0.00 0.00 80.8   0.9 40.8   0.1
Yountville (Ranch 67) 9/6/26 1345 78.8   0.3 35   1 49.1   0.8 4.7   0.3 SE | 136 12.1   0.0 0.00 0.00 79.8   1.1 41.2   0.2
Borreo (Soda Canyon) 9/6/26 1330 75.9   0.2 38   2 48.2   1.0 3.1   0.1 SSE | 155 8.5   0.1 0.00 0.00 76.6   0.3 44.0   1.7
Wappo Hill Floor 9/6/26 1345 79.5   0.3 38   3 51.6   1.9 6.9   3.5 SE | 130 12.1   2.2 0.00 0.00 79.7   1.0 41.0   0.8
Wappo Hill 9/6/26 1345 78.5   0.5 38   3 50.8   1.4 7.7   2.8 ESE | 118 14.0   3.4 0.00 0.00 80.4   0.5 46.8   0.1
Stags Leap Dist (Chimney Rock) 9/6/26 1345 78.1   0.1 45   3 55.0   2.0 5.9   3.1 SSE | 151 11.6   4.3 0.00 0.00 78.9   0.4 41.5   0.1
Stags Leap Dist (Silverado Vineyards) 9/6/26 1345 78.8   0.8 34   2 47.8   0.5 4.2   0.2 SSE | 148 9.6   0.0 0.00 0.00 79.2   0.8 42.4   0.0
Yountville-SE (Ranch 85) 9/6/26 1345 77.5   0.6 43   4 53.0   2.3 6.6   3.1 SSE | 164 13.2   4.4 0.00 0.00 78.4   0.6 42.2   1.0
Yountville-South (Ranch 87) 9/6/26 1345 79.8   0.5 38   1 52.0   1.2 4.3   1.4 SSE | 156 9.5   3.0 0.00 0.00 80.3   0.4 42.2   0.6
Max     83.5 45 55.0 7.7 - 14.0 0.00 0.00 84.4 50.6
Avg     80.1 32 47.1 4.7 - 10.4 0.00 - - -
Min     75.3 21 38.9 2.5 - 7.0 0.00 0.00 75.8 36.5